sensor_id;sensor_type;location;lat;lon;timestamp;P1;durP1;ratioP1;P2;durP2;ratioP2
9854;SDS011;4966;48.112;9.282;2023-07-28T00:01:31;98.55;;;69.55;;
9854;SDS011;4966;48.112;9.282;2023-07-28T00:03:57;46.92;;;21.38;;
9854;SDS011;4966;48.112;9.282;2023-07-28T00:06:22;1999.90;;;999.90;;
9854;SDS011;4966;48.112;9.282;2023-07-28T00:08:48;1999.90;;;999.90;;
9854;SDS011;4966;48.112;9.282;2023-07-28T00:11:14;1999.90;;;999.90;;
9854;SDS011;4966;48.112;9.282;2023-07-28T00:13:40;1999.90;;;999.90;;
9854;SDS011;4966;48.112;9.282;2023-07-28T00:16:06;256.95;;;131.18;;
9854;SDS011;4966;48.112;9.282;2023-07-28T00:18:32;1519.38;;;751.53;;
9854;SDS011;4966;48.112;9.282;2023-07-28T00:20:57;0.50;;;0.50;;
9854;SDS011;4966;48.112;9.282;2023-07-28T00:23:22;570.70;;;293.38;;
9854;SDS011;4966;48.112;9.282;2023-07-28T00:25:48;1999.90;;;999.90;;
9854;SDS011;4966;48.112;9.282;2023-07-28T00:28:13;1999.90;;;999.90;;
9854;SDS011;4966;48.112;9.282;2023-07-28T00:30:39;1999.90;;;999.90;;
9854;SDS011;4966;48.112;9.282;2023-07-28T00:33:04;1999.90;;;999.90;;
9854;SDS011;4966;48.112;9.282;2023-07-28T00:35:30;1999.90;;;999.90;;
9854;SDS011;4966;48.112;9.282;2023-07-28T00:37:55;1999.90;;;999.90;;
9854;SDS011;4966;48.112;9.282;2023-07-28T00:40:21;1999.90;;;999.90;;
9854;SDS011;4966;48.112;9.282;2023-07-28T00:42:47;1999.90;;;999.90;;
9854;SDS011;4966;48.112;9.282;2023-07-28T00:45:12;1999.90;;;999.90;;
9854;SDS011;4966;48.112;9.282;2023-07-28T00:47:38;1999.90;;;999.90;;
9854;SDS011;4966;48.112;9.282;2023-07-28T00:50:03;1999.90;;;999.90;;
9854;SDS011;4966;48.112;9.282;2023-07-28T00:52:29;1999.90;;;999.90;;
9854;SDS011;4966;48.112;9.282;2023-07-28T00:54:55;1999.90;;;999.90;;
9854;SDS011;4966;48.112;9.282;2023-07-28T00:57:20;1999.90;;;999.90;;
9854;SDS011;4966;48.112;9.282;2023-07-28T00:59:46;1999.90;;;999.90;;
9854;SDS011;4966;48.112;9.282;2023-07-28T01:02:12;1999.90;;;999.90;;
9854;SDS011;4966;48.112;9.282;2023-07-28T01:04:37;1999.90;;;999.90;;
9854;SDS011;4966;48.112;9.282;2023-07-28T01:12:26;1.70;;;0.80;;
9854;SDS011;4966;48.112;9.282;2023-07-28T01:14:51;1999.90;;;999.90;;
9854;SDS011;4966;48.112;9.282;2023-07-28T01:17:16;0.03;;;0.03;;
9854;SDS011;4966;48.112;9.282;2023-07-28T01:19:43;1999.90;;;999.90;;
9854;SDS011;4966;48.112;9.282;2023-07-28T01:25:00;0.00;;;0.00;;
9854;SDS011;4966;48.112;9.282;2023-07-28T01:27:28;1.08;;;0.77;;
9854;SDS011;4966;48.112;9.282;2023-07-28T01:29:54;1.98;;;0.95;;
9854;SDS011;4966;48.112;9.282;2023-07-28T01:32:19;1.45;;;0.73;;
9854;SDS011;4966;48.112;9.282;2023-07-28T01:34:45;0.88;;;0.50;;
9854;SDS011;4966;48.112;9.282;2023-07-28T01:37:10;3.97;;;1.60;;
9854;SDS011;4966;48.112;9.282;2023-07-28T01:39:36;1138.30;;;80.63;;
9854;SDS011;4966;48.112;9.282;2023-07-28T01:42:01;1561.95;;;757.80;;
9854;SDS011;4966;48.112;9.282;2023-07-28T01:44:26;111.00;;;34.20;;
9854;SDS011;4966;48.112;9.282;2023-07-28T01:46:52;1726.90;;;117.68;;
9854;SDS011;4966;48.112;9.282;2023-07-28T01:49:17;3.85;;;1.77;;
9854;SDS011;4966;48.112;9.282;2023-07-28T01:51:42;3.85;;;1.92;;
9854;SDS011;4966;48.112;9.282;2023-07-28T01:54:08;6.35;;;1.92;;
9854;SDS011;4966;48.112;9.282;2023-07-28T01:56:33;3.30;;;1.80;;
9854;SDS011;4966;48.112;9.282;2023-07-28T01:58:58;3.97;;;1.95;;
9854;SDS011;4966;48.112;9.282;2023-07-28T02:01:23;39.40;;;8.88;;
9854;SDS011;4966;48.112;9.282;2023-07-28T02:03:49;5.75;;;2.40;;
9854;SDS011;4966;48.112;9.282;2023-07-28T02:06:14;2.13;;;1.40;;
9854;SDS011;4966;48.112;9.282;2023-07-28T02:08:39;4.15;;;2.10;;
9854;SDS011;4966;48.112;9.282;2023-07-28T02:11:04;3.70;;;1.88;;
9854;SDS011;4966;48.112;9.282;2023-07-28T02:13:30;5.75;;;1.85;;
9854;SDS011;4966;48.112;9.282;2023-07-28T02:15:55;6.22;;;2.10;;
9854;SDS011;4966;48.112;9.282;2023-07-28T02:18:20;3.13;;;1.60;;
9854;SDS011;4966;48.112;9.282;2023-07-28T02:20:49;2.67;;;1.60;;
9854;SDS011;4966;48.112;9.282;2023-07-28T02:23:14;4.13;;;1.73;;
9854;SDS011;4966;48.112;9.282;2023-07-28T02:25:39;3.97;;;1.77;;
9854;SDS011;4966;48.112;9.282;2023-07-28T02:28:06;3.33;;;1.98;;
9854;SDS011;4966;48.112;9.282;2023-07-28T02:30:32;4.80;;;2.30;;
9854;SDS011;4966;48.112;9.282;2023-07-28T02:32:57;4.07;;;1.63;;
9854;SDS011;4966;48.112;9.282;2023-07-28T02:35:22;3.25;;;1.75;;
9854;SDS011;4966;48.112;9.282;2023-07-28T02:37:48;6.18;;;2.17;;
9854;SDS011;4966;48.112;9.282;2023-07-28T02:40:13;2.65;;;1.58;;
9854;SDS011;4966;48.112;9.282;2023-07-28T02:42:38;3.00;;;1.83;;
9854;SDS011;4966;48.112;9.282;2023-07-28T02:45:04;3.15;;;1.90;;
9854;SDS011;4966;48.112;9.282;2023-07-28T02:47:30;181.07;;;60.42;;
9854;SDS011;4966;48.112;9.282;2023-07-28T02:49:55;1999.90;;;999.90;;
9854;SDS011;4966;48.112;9.282;2023-07-28T02:52:22;1999.90;;;999.90;;
9854;SDS011;4966;48.112;9.282;2023-07-28T02:54:47;1999.90;;;999.90;;
9854;SDS011;4966;48.112;9.282;2023-07-28T02:57:13;1999.90;;;999.90;;
9854;SDS011;4966;48.112;9.282;2023-07-28T02:59:38;1999.90;;;999.90;;
9854;SDS011;4966;48.112;9.282;2023-07-28T03:02:03;1999.90;;;999.90;;
9854;SDS011;4966;48.112;9.282;2023-07-28T03:04:29;1999.90;;;999.90;;
9854;SDS011;4966;48.112;9.282;2023-07-28T03:06:54;1999.90;;;999.90;;
9854;SDS011;4966;48.112;9.282;2023-07-28T03:09:19;1999.90;;;999.90;;
9854;SDS011;4966;48.112;9.282;2023-07-28T03:11:45;1999.90;;;999.90;;
9854;SDS011;4966;48.112;9.282;2023-07-28T03:14:10;1999.90;;;999.90;;
9854;SDS011;4966;48.112;9.282;2023-07-28T03:16:37;1999.90;;;999.90;;
9854;SDS011;4966;48.112;9.282;2023-07-28T03:19:03;1999.90;;;999.90;;
9854;SDS011;4966;48.112;9.282;2023-07-28T03:21:29;1999.90;;;999.90;;
9854;SDS011;4966;48.112;9.282;2023-07-28T03:23:56;1999.90;;;999.90;;
9854;SDS011;4966;48.112;9.282;2023-07-28T03:26:21;1999.90;;;999.90;;
9854;SDS011;4966;48.112;9.282;2023-07-28T03:28:46;1999.90;;;999.90;;
9854;SDS011;4966;48.112;9.282;2023-07-28T03:31:12;1999.90;;;999.90;;
9854;SDS011;4966;48.112;9.282;2023-07-28T03:33:37;1999.90;;;999.90;;
9854;SDS011;4966;48.112;9.282;2023-07-28T03:36:02;1999.90;;;999.90;;
9854;SDS011;4966;48.112;9.282;2023-07-28T03:38:28;1999.90;;;999.90;;
9854;SDS011;4966;48.112;9.282;2023-07-28T03:40:53;1999.90;;;999.90;;
9854;SDS011;4966;48.112;9.282;2023-07-28T03:43:19;1999.90;;;999.90;;
9854;SDS011;4966;48.112;9.282;2023-07-28T03:45:45;1999.90;;;999.90;;
9854;SDS011;4966;48.112;9.282;2023-07-28T03:48:10;13.40;;;12.55;;
9854;SDS011;4966;48.112;9.282;2023-07-28T03:50:36;1999.90;;;999.90;;
9854;SDS011;4966;48.112;9.282;2023-07-28T03:53:01;1999.90;;;999.90;;
9854;SDS011;4966;48.112;9.282;2023-07-28T03:55:26;1999.90;;;999.90;;
9854;SDS011;4966;48.112;9.282;2023-07-28T03:57:52;1999.90;;;999.90;;
9854;SDS011;4966;48.112;9.282;2023-07-28T04:00:17;1999.90;;;999.90;;
9854;SDS011;4966;48.112;9.282;2023-07-28T04:02:43;1999.90;;;999.90;;
9854;SDS011;4966;48.112;9.282;2023-07-28T04:05:09;1999.90;;;999.90;;
9854;SDS011;4966;48.112;9.282;2023-07-28T04:07:34;1999.90;;;999.90;;
9854;SDS011;4966;48.112;9.282;2023-07-28T04:10:00;1999.90;;;999.90;;
9854;SDS011;4966;48.112;9.282;2023-07-28T04:12:25;1999.90;;;999.90;;
9854;SDS011;4966;48.112;9.282;2023-07-28T04:14:50;1999.90;;;999.90;;
9854;SDS011;4966;48.112;9.282;2023-07-28T04:17:16;1999.90;;;999.90;;
9854;SDS011;4966;48.112;9.282;2023-07-28T04:19:41;1999.90;;;999.90;;
9854;SDS011;4966;48.112;9.282;2023-07-28T04:22:06;1999.90;;;999.90;;
9854;SDS011;4966;48.112;9.282;2023-07-28T04:24:31;1999.90;;;999.90;;
9854;SDS011;4966;48.112;9.282;2023-07-28T04:26:57;1999.90;;;999.90;;
9854;SDS011;4966;48.112;9.282;2023-07-28T04:29:23;1999.90;;;999.90;;
9854;SDS011;4966;48.112;9.282;2023-07-28T04:31:48;1999.90;;;999.90;;
9854;SDS011;4966;48.112;9.282;2023-07-28T04:34:13;1999.90;;;999.90;;
9854;SDS011;4966;48.112;9.282;2023-07-28T04:36:38;1999.90;;;999.90;;
9854;SDS011;4966;48.112;9.282;2023-07-28T04:39:04;1999.90;;;999.90;;
9854;SDS011;4966;48.112;9.282;2023-07-28T04:41:29;1999.90;;;999.90;;
9854;SDS011;4966;48.112;9.282;2023-07-28T04:43:54;19.33;;;12.35;;
9854;SDS011;4966;48.112;9.282;2023-07-28T04:46:20;1.10;;;0.90;;
9854;SDS011;4966;48.112;9.282;2023-07-28T04:48:46;0.90;;;0.90;;
9854;SDS011;4966;48.112;9.282;2023-07-28T04:51:11;0.70;;;0.65;;
9854;SDS011;4966;48.112;9.282;2023-07-28T04:53:37;0.40;;;0.40;;
9854;SDS011;4966;48.112;9.282;2023-07-28T04:56:02;0.63;;;0.52;;
9854;SDS011;4966;48.112;9.282;2023-07-28T04:58:28;0.45;;;0.40;;
9854;SDS011;4966;48.112;9.282;2023-07-28T05:00:54;0.03;;;0.03;;
9854;SDS011;4966;48.112;9.282;2023-07-28T05:03:19;0.20;;;0.20;;
9854;SDS011;4966;48.112;9.282;2023-07-28T05:05:44;0.50;;;0.30;;
9854;SDS011;4966;48.112;9.282;2023-07-28T05:08:10;0.43;;;0.22;;
9854;SDS011;4966;48.112;9.282;2023-07-28T05:10:35;0.00;;;0.00;;
9854;SDS011;4966;48.112;9.282;2023-07-28T05:13:01;0.22;;;0.22;;
9854;SDS011;4966;48.112;9.282;2023-07-28T05:15:29;0.30;;;0.30;;
9854;SDS011;4966;48.112;9.282;2023-07-28T05:17:54;0.30;;;0.30;;
9854;SDS011;4966;48.112;9.282;2023-07-28T05:20:19;0.17;;;0.13;;
9854;SDS011;4966;48.112;9.282;2023-07-28T05:22:45;0.65;;;0.50;;
9854;SDS011;4966;48.112;9.282;2023-07-28T05:25:10;0.13;;;0.13;;
9854;SDS011;4966;48.112;9.282;2023-07-28T05:27:36;0.17;;;0.17;;
9854;SDS011;4966;48.112;9.282;2023-07-28T05:30:01;0.32;;;0.28;;
9854;SDS011;4966;48.112;9.282;2023-07-28T05:32:26;0.22;;;0.20;;
9854;SDS011;4966;48.112;9.282;2023-07-28T05:34:51;1.83;;;0.93;;
9854;SDS011;4966;48.112;9.282;2023-07-28T05:37:17;2.33;;;1.10;;
9854;SDS011;4966;48.112;9.282;2023-07-28T05:39:42;2.17;;;1.10;;
9854;SDS011;4966;48.112;9.282;2023-07-28T05:42:09;3.38;;;1.20;;
9854;SDS011;4966;48.112;9.282;2023-07-28T05:44:34;12.70;;;1.27;;
9854;SDS011;4966;48.112;9.282;2023-07-28T05:46:59;5.55;;;2.80;;
9854;SDS011;4966;48.112;9.282;2023-07-28T05:49:25;2.30;;;1.13;;
9854;SDS011;4966;48.112;9.282;2023-07-28T05:51:50;2.08;;;1.30;;
9854;SDS011;4966;48.112;9.282;2023-07-28T05:54:15;1.08;;;0.80;;
9854;SDS011;4966;48.112;9.282;2023-07-28T05:56:41;2.60;;;1.40;;
9854;SDS011;4966;48.112;9.282;2023-07-28T05:59:07;12.32;;;10.05;;
9854;SDS011;4966;48.112;9.282;2023-07-28T06:01:32;3.03;;;1.35;;
9854;SDS011;4966;48.112;9.282;2023-07-28T06:03:58;2.85;;;1.42;;
9854;SDS011;4966;48.112;9.282;2023-07-28T06:06:24;2.67;;;1.50;;
9854;SDS011;4966;48.112;9.282;2023-07-28T06:08:50;2.20;;;1.42;;
9854;SDS011;4966;48.112;9.282;2023-07-28T06:11:16;5.72;;;1.40;;
9854;SDS011;4966;48.112;9.282;2023-07-28T06:13:41;3.30;;;1.73;;
9854;SDS011;4966;48.112;9.282;2023-07-28T06:16:06;3.10;;;1.30;;
9854;SDS011;4966;48.112;9.282;2023-07-28T06:18:32;4.38;;;1.50;;
9854;SDS011;4966;48.112;9.282;2023-07-28T06:20:57;3.83;;;1.67;;
9854;SDS011;4966;48.112;9.282;2023-07-28T06:23:22;3.45;;;1.90;;
9854;SDS011;4966;48.112;9.282;2023-07-28T06:25:49;2.35;;;1.30;;
9854;SDS011;4966;48.112;9.282;2023-07-28T06:28:14;1999.90;;;999.90;;
9854;SDS011;4966;48.112;9.282;2023-07-28T06:30:39;1999.90;;;999.90;;
9854;SDS011;4966;48.112;9.282;2023-07-28T06:33:08;1999.90;;;999.90;;
9854;SDS011;4966;48.112;9.282;2023-07-28T06:35:34;1999.90;;;999.90;;
9854;SDS011;4966;48.112;9.282;2023-07-28T06:38:00;1999.90;;;999.90;;
9854;SDS011;4966;48.112;9.282;2023-07-28T06:40:26;1999.90;;;999.90;;
9854;SDS011;4966;48.112;9.282;2023-07-28T06:42:51;174.57;;;69.25;;
9854;SDS011;4966;48.112;9.282;2023-07-28T06:45:17;1999.90;;;999.90;;
9854;SDS011;4966;48.112;9.282;2023-07-28T06:47:42;1999.90;;;999.90;;
9854;SDS011;4966;48.112;9.282;2023-07-28T06:50:08;1999.90;;;999.90;;
9854;SDS011;4966;48.112;9.282;2023-07-28T06:52:33;1999.90;;;999.90;;
9854;SDS011;4966;48.112;9.282;2023-07-28T06:54:59;82.05;;;9.13;;
9854;SDS011;4966;48.112;9.282;2023-07-28T06:57:24;6.80;;;5.97;;
9854;SDS011;4966;48.112;9.282;2023-07-28T06:59:50;34.08;;;31.98;;
9854;SDS011;4966;48.112;9.282;2023-07-28T07:02:15;1.70;;;1.15;;
9854;SDS011;4966;48.112;9.282;2023-07-28T07:04:41;2.38;;;1.58;;
9854;SDS011;4966;48.112;9.282;2023-07-28T07:07:07;2.40;;;1.38;;
9854;SDS011;4966;48.112;9.282;2023-07-28T07:09:32;1.80;;;0.90;;
9854;SDS011;4966;48.112;9.282;2023-07-28T07:11:57;3.33;;;0.85;;
9854;SDS011;4966;48.112;9.282;2023-07-28T07:14:23;2.15;;;1.15;;
9854;SDS011;4966;48.112;9.282;2023-07-28T07:16:48;3.35;;;1.10;;
9854;SDS011;4966;48.112;9.282;2023-07-28T07:19:14;1.58;;;1.00;;
9854;SDS011;4966;48.112;9.282;2023-07-28T07:21:40;1.10;;;0.60;;
9854;SDS011;4966;48.112;9.282;2023-07-28T07:24:06;1.48;;;0.73;;
9854;SDS011;4966;48.112;9.282;2023-07-28T07:26:32;3.50;;;1.02;;
9854;SDS011;4966;48.112;9.282;2023-07-28T07:28:57;2.25;;;0.80;;
9854;SDS011;4966;48.112;9.282;2023-07-28T07:31:23;1999.90;;;999.90;;
9854;SDS011;4966;48.112;9.282;2023-07-28T07:33:48;1999.90;;;999.90;;
9854;SDS011;4966;48.112;9.282;2023-07-28T07:36:18;1999.90;;;999.90;;
9854;SDS011;4966;48.112;9.282;2023-07-28T07:38:44;1999.90;;;999.90;;
9854;SDS011;4966;48.112;9.282;2023-07-28T07:41:14;1999.90;;;999.90;;
9854;SDS011;4966;48.112;9.282;2023-07-28T07:43:49;1999.90;;;999.90;;
9854;SDS011;4966;48.112;9.282;2023-07-28T07:46:17;1999.90;;;999.90;;
9854;SDS011;4966;48.112;9.282;2023-07-28T07:48:44;1999.90;;;999.90;;
9854;SDS011;4966;48.112;9.282;2023-07-28T07:51:09;1999.90;;;999.90;;
9854;SDS011;4966;48.112;9.282;2023-07-28T07:53:36;1999.90;;;999.90;;
9854;SDS011;4966;48.112;9.282;2023-07-28T07:56:02;1999.90;;;999.90;;
9854;SDS011;4966;48.112;9.282;2023-07-28T07:58:28;1999.90;;;999.90;;
9854;SDS011;4966;48.112;9.282;2023-07-28T08:00:54;442.48;;;34.08;;
9854;SDS011;4966;48.112;9.282;2023-07-28T08:03:20;1999.90;;;999.90;;
9854;SDS011;4966;48.112;9.282;2023-07-28T08:05:45;1999.90;;;999.90;;
9854;SDS011;4966;48.112;9.282;2023-07-28T08:08:10;1999.90;;;999.90;;
9854;SDS011;4966;48.112;9.282;2023-07-28T08:10:36;1999.90;;;999.90;;
9854;SDS011;4966;48.112;9.282;2023-07-28T08:13:03;1999.90;;;999.90;;
9854;SDS011;4966;48.112;9.282;2023-07-28T08:15:29;1999.90;;;999.90;;
9854;SDS011;4966;48.112;9.282;2023-07-28T08:17:54;1999.90;;;999.90;;
9854;SDS011;4966;48.112;9.282;2023-07-28T08:20:19;1999.90;;;999.90;;
9854;SDS011;4966;48.112;9.282;2023-07-28T08:22:45;1999.90;;;999.90;;
9854;SDS011;4966;48.112;9.282;2023-07-28T08:25:10;1999.90;;;999.90;;
9854;SDS011;4966;48.112;9.282;2023-07-28T08:27:35;1999.90;;;999.90;;
9854;SDS011;4966;48.112;9.282;2023-07-28T08:30:01;523.90;;;257.70;;
9854;SDS011;4966;48.112;9.282;2023-07-28T08:32:26;1999.90;;;999.90;;
9854;SDS011;4966;48.112;9.282;2023-07-28T08:34:52;1999.90;;;999.90;;
9854;SDS011;4966;48.112;9.282;2023-07-28T08:37:18;1999.90;;;999.90;;
9854;SDS011;4966;48.112;9.282;2023-07-28T08:39:43;1999.90;;;999.90;;
9854;SDS011;4966;48.112;9.282;2023-07-28T08:42:08;14.48;;;13.68;;
9854;SDS011;4966;48.112;9.282;2023-07-28T08:44:34;5.85;;;5.47;;
9854;SDS011;4966;48.112;9.282;2023-07-28T08:47:00;4.80;;;4.50;;
9854;SDS011;4966;48.112;9.282;2023-07-28T08:49:26;6.43;;;6.03;;
9854;SDS011;4966;48.112;9.282;2023-07-28T08:51:52;83.63;;;78.97;;
9854;SDS011;4966;48.112;9.282;2023-07-28T08:54:23;1999.90;;;999.90;;
9854;SDS011;4966;48.112;9.282;2023-07-28T08:56:48;1999.90;;;999.90;;
9854;SDS011;4966;48.112;9.282;2023-07-28T08:59:20;1999.90;;;999.90;;
9854;SDS011;4966;48.112;9.282;2023-07-28T09:01:49;1999.90;;;999.90;;
9854;SDS011;4966;48.112;9.282;2023-07-28T09:04:15;1999.90;;;999.90;;
9854;SDS011;4966;48.112;9.282;2023-07-28T09:06:42;1999.90;;;999.90;;
9854;SDS011;4966;48.112;9.282;2023-07-28T09:09:09;1999.90;;;999.90;;
9854;SDS011;4966;48.112;9.282;2023-07-28T09:11:43;1999.90;;;999.90;;
9854;SDS011;4966;48.112;9.282;2023-07-28T09:14:11;1999.90;;;999.90;;
9854;SDS011;4966;48.112;9.282;2023-07-28T09:16:37;1999.90;;;999.90;;
9854;SDS011;4966;48.112;9.282;2023-07-28T09:19:06;1999.90;;;999.90;;
9854;SDS011;4966;48.112;9.282;2023-07-28T09:21:33;1999.90;;;999.90;;
9854;SDS011;4966;48.112;9.282;2023-07-28T09:24:05;1999.90;;;999.90;;
9854;SDS011;4966;48.112;9.282;2023-07-28T09:29:24;1999.90;;;999.90;;
9854;SDS011;4966;48.112;9.282;2023-07-28T09:31:49;1999.90;;;999.90;;
9854;SDS011;4966;48.112;9.282;2023-07-28T09:34:27;1999.90;;;999.90;;
9854;SDS011;4966;48.112;9.282;2023-07-28T09:36:53;1999.90;;;999.90;;
9854;SDS011;4966;48.112;9.282;2023-07-28T09:39:20;1999.90;;;999.90;;
9854;SDS011;4966;48.112;9.282;2023-07-28T09:41:46;1999.90;;;999.90;;
9854;SDS011;4966;48.112;9.282;2023-07-28T09:44:12;1999.90;;;999.90;;
9854;SDS011;4966;48.112;9.282;2023-07-28T09:46:39;1999.90;;;999.90;;
9854;SDS011;4966;48.112;9.282;2023-07-28T09:49:15;1999.90;;;999.90;;
9854;SDS011;4966;48.112;9.282;2023-07-28T09:51:46;1999.90;;;999.90;;
9854;SDS011;4966;48.112;9.282;2023-07-28T09:54:18;1999.90;;;999.90;;
9854;SDS011;4966;48.112;9.282;2023-07-28T09:56:56;1999.90;;;999.90;;
9854;SDS011;4966;48.112;9.282;2023-07-28T09:59:28;1999.90;;;999.90;;
9854;SDS011;4966;48.112;9.282;2023-07-28T10:01:57;1999.90;;;999.90;;
9854;SDS011;4966;48.112;9.282;2023-07-28T10:04:23;1999.90;;;999.90;;
9854;SDS011;4966;48.112;9.282;2023-07-28T10:06:49;1999.90;;;999.90;;
9854;SDS011;4966;48.112;9.282;2023-07-28T10:09:21;1999.90;;;999.90;;
9854;SDS011;4966;48.112;9.282;2023-07-28T10:11:50;1999.90;;;999.90;;
9854;SDS011;4966;48.112;9.282;2023-07-28T10:14:25;49.53;;;45.28;;
9854;SDS011;4966;48.112;9.282;2023-07-28T10:16:53;1999.90;;;999.90;;
9854;SDS011;4966;48.112;9.282;2023-07-28T10:19:23;565.78;;;288.42;;
9854;SDS011;4966;48.112;9.282;2023-07-28T10:21:50;1999.90;;;999.90;;
9854;SDS011;4966;48.112;9.282;2023-07-28T10:27:35;8.00;;;7.60;;
9854;SDS011;4966;48.112;9.282;2023-07-28T10:30:02;6.55;;;6.20;;
9854;SDS011;4966;48.112;9.282;2023-07-28T10:32:36;2.85;;;2.72;;
9854;SDS011;4966;48.112;9.282;2023-07-28T10:37:38;1.85;;;1.75;;
9854;SDS011;4966;48.112;9.282;2023-07-28T10:42:49;1.30;;;1.23;;
9854;SDS011;4966;48.112;9.282;2023-07-28T10:45:15;7.28;;;6.82;;
9854;SDS011;4966;48.112;9.282;2023-07-28T10:47:40;1.63;;;1.52;;
9854;SDS011;4966;48.112;9.282;2023-07-28T10:50:10;1.10;;;1.10;;
9854;SDS011;4966;48.112;9.282;2023-07-28T10:52:42;1.42;;;1.33;;
9854;SDS011;4966;48.112;9.282;2023-07-28T10:55:15;2.60;;;2.50;;
9854;SDS011;4966;48.112;9.282;2023-07-28T10:57:43;1.00;;;1.00;;
9854;SDS011;4966;48.112;9.282;2023-07-28T11:00:10;38.20;;;35.58;;
9854;SDS011;4966;48.112;9.282;2023-07-28T11:02:43;3.50;;;3.30;;
9854;SDS011;4966;48.112;9.282;2023-07-28T11:05:11;1.73;;;1.63;;
9854;SDS011;4966;48.112;9.282;2023-07-28T11:07:42;0.70;;;0.70;;
9854;SDS011;4966;48.112;9.282;2023-07-28T11:10:09;0.70;;;0.70;;
9854;SDS011;4966;48.112;9.282;2023-07-28T11:12:44;1.08;;;1.08;;
9854;SDS011;4966;48.112;9.282;2023-07-28T11:15:12;0.50;;;0.50;;
9854;SDS011;4966;48.112;9.282;2023-07-28T11:17:40;0.60;;;0.60;;
9854;SDS011;4966;48.112;9.282;2023-07-28T11:20:15;0.63;;;0.63;;
9854;SDS011;4966;48.112;9.282;2023-07-28T11:22:42;1999.90;;;999.90;;
9854;SDS011;4966;48.112;9.282;2023-07-28T11:25:09;1999.90;;;999.90;;
9854;SDS011;4966;48.112;9.282;2023-07-28T11:27:35;1999.90;;;999.90;;
9854;SDS011;4966;48.112;9.282;2023-07-28T11:30:01;1999.90;;;999.90;;
9854;SDS011;4966;48.112;9.282;2023-07-28T11:32:28;1999.90;;;999.90;;
9854;SDS011;4966;48.112;9.282;2023-07-28T11:34:55;1999.90;;;999.90;;
9854;SDS011;4966;48.112;9.282;2023-07-28T11:37:20;27.05;;;25.20;;
9854;SDS011;4966;48.112;9.282;2023-07-28T11:39:46;1999.90;;;999.90;;
9854;SDS011;4966;48.112;9.282;2023-07-28T11:42:12;203.48;;;72.28;;
9854;SDS011;4966;48.112;9.282;2023-07-28T11:44:38;159.50;;;17.33;;
9854;SDS011;4966;48.112;9.282;2023-07-28T11:47:04;1999.90;;;999.90;;
9854;SDS011;4966;48.112;9.282;2023-07-28T11:49:30;61.58;;;57.65;;
9854;SDS011;4966;48.112;9.282;2023-07-28T11:51:56;1999.90;;;999.90;;
9854;SDS011;4966;48.112;9.282;2023-07-28T11:54:24;10.40;;;9.75;;
9854;SDS011;4966;48.112;9.282;2023-07-28T11:56:53;67.82;;;44.47;;
9854;SDS011;4966;48.112;9.282;2023-07-28T11:59:20;2.28;;;1.13;;
9854;SDS011;4966;48.112;9.282;2023-07-28T12:04:25;3.03;;;1.42;;
9854;SDS011;4966;48.112;9.282;2023-07-28T12:09:31;7.18;;;1.48;;
9854;SDS011;4966;48.112;9.282;2023-07-28T12:11:57;2.55;;;1.38;;
9854;SDS011;4966;48.112;9.282;2023-07-28T12:14:33;2.17;;;1.30;;
9854;SDS011;4966;48.112;9.282;2023-07-28T12:17:00;3.25;;;1.70;;
9854;SDS011;4966;48.112;9.282;2023-07-28T12:19:26;2.42;;;1.30;;
9854;SDS011;4966;48.112;9.282;2023-07-28T12:21:51;2.22;;;1.50;;
9854;SDS011;4966;48.112;9.282;2023-07-28T12:24:17;3.70;;;1.42;;
9854;SDS011;4966;48.112;9.282;2023-07-28T12:26:42;2.97;;;1.63;;
9854;SDS011;4966;48.112;9.282;2023-07-28T12:29:08;2.90;;;1.52;;
9854;SDS011;4966;48.112;9.282;2023-07-28T12:31:33;3.15;;;1.67;;
9854;SDS011;4966;48.112;9.282;2023-07-28T12:33:59;2.95;;;1.48;;
9854;SDS011;4966;48.112;9.282;2023-07-28T12:36:24;3.28;;;1.60;;
9854;SDS011;4966;48.112;9.282;2023-07-28T12:38:50;2.70;;;1.40;;
9854;SDS011;4966;48.112;9.282;2023-07-28T12:41:15;2.92;;;1.60;;
9854;SDS011;4966;48.112;9.282;2023-07-28T12:43:40;2.97;;;1.60;;
9854;SDS011;4966;48.112;9.282;2023-07-28T12:46:06;2.10;;;1.00;;
9854;SDS011;4966;48.112;9.282;2023-07-28T12:48:31;3.55;;;1.35;;
9854;SDS011;4966;48.112;9.282;2023-07-28T12:50:56;2.35;;;1.27;;
9854;SDS011;4966;48.112;9.282;2023-07-28T12:53:22;4.00;;;1.30;;
9854;SDS011;4966;48.112;9.282;2023-07-28T12:55:47;2.25;;;1.40;;
9854;SDS011;4966;48.112;9.282;2023-07-28T12:58:12;4.40;;;1.40;;
9854;SDS011;4966;48.112;9.282;2023-07-28T13:00:38;2.45;;;1.40;;
9854;SDS011;4966;48.112;9.282;2023-07-28T13:03:06;2.58;;;1.50;;
9854;SDS011;4966;48.112;9.282;2023-07-28T13:05:31;604.55;;;53.90;;
9854;SDS011;4966;48.112;9.282;2023-07-28T13:07:57;2.40;;;1.50;;
9854;SDS011;4966;48.112;9.282;2023-07-28T13:10:22;2.28;;;1.40;;
9854;SDS011;4966;48.112;9.282;2023-07-28T13:12:48;3.78;;;1.80;;
9854;SDS011;4966;48.112;9.282;2023-07-28T13:15:13;4.28;;;1.70;;
9854;SDS011;4966;48.112;9.282;2023-07-28T13:17:38;8.27;;;1.60;;
9854;SDS011;4966;48.112;9.282;2023-07-28T13:20:04;2.25;;;1.35;;
9854;SDS011;4966;48.112;9.282;2023-07-28T13:22:31;2.92;;;1.67;;
9854;SDS011;4966;48.112;9.282;2023-07-28T13:24:57;2.25;;;1.40;;
9854;SDS011;4966;48.112;9.282;2023-07-28T13:27:22;3.08;;;1.70;;
9854;SDS011;4966;48.112;9.282;2023-07-28T13:29:48;3.33;;;1.60;;
9854;SDS011;4966;48.112;9.282;2023-07-28T13:32:17;2.25;;;1.33;;
9854;SDS011;4966;48.112;9.282;2023-07-28T13:34:47;2.30;;;1.50;;
9854;SDS011;4966;48.112;9.282;2023-07-28T13:37:12;4.35;;;1.80;;
9854;SDS011;4966;48.112;9.282;2023-07-28T13:39:38;2.38;;;1.35;;
9854;SDS011;4966;48.112;9.282;2023-07-28T13:42:03;4.60;;;2.72;;
9854;SDS011;4966;48.112;9.282;2023-07-28T13:44:29;4.28;;;1.50;;
9854;SDS011;4966;48.112;9.282;2023-07-28T13:46:54;4.32;;;1.42;;
9854;SDS011;4966;48.112;9.282;2023-07-28T13:49:19;2.05;;;1.13;;
9854;SDS011;4966;48.112;9.282;2023-07-28T13:51:45;4.93;;;1.60;;
9854;SDS011;4966;48.112;9.282;2023-07-28T13:54:10;2.28;;;1.27;;
9854;SDS011;4966;48.112;9.282;2023-07-28T13:56:36;4.47;;;1.55;;
9854;SDS011;4966;48.112;9.282;2023-07-28T13:59:01;3.20;;;1.38;;
9854;SDS011;4966;48.112;9.282;2023-07-28T14:01:26;986.13;;;78.68;;
9854;SDS011;4966;48.112;9.282;2023-07-28T14:03:52;1999.90;;;999.90;;
9854;SDS011;4966;48.112;9.282;2023-07-28T14:06:17;1999.90;;;999.90;;
9854;SDS011;4966;48.112;9.282;2023-07-28T14:08:42;1999.90;;;999.90;;
9854;SDS011;4966;48.112;9.282;2023-07-28T14:11:09;1999.90;;;999.90;;
9854;SDS011;4966;48.112;9.282;2023-07-28T14:13:35;1999.90;;;999.90;;
9854;SDS011;4966;48.112;9.282;2023-07-28T14:16:00;1999.90;;;999.90;;
9854;SDS011;4966;48.112;9.282;2023-07-28T14:18:25;1999.90;;;999.90;;
9854;SDS011;4966;48.112;9.282;2023-07-28T14:20:51;1999.90;;;999.90;;
9854;SDS011;4966;48.112;9.282;2023-07-28T14:23:20;1999.90;;;999.90;;
9854;SDS011;4966;48.112;9.282;2023-07-28T14:25:47;1999.90;;;999.90;;
9854;SDS011;4966;48.112;9.282;2023-07-28T14:28:12;1999.90;;;999.90;;
9854;SDS011;4966;48.112;9.282;2023-07-28T14:30:37;1999.90;;;999.90;;
9854;SDS011;4966;48.112;9.282;2023-07-28T14:33:03;1999.90;;;999.90;;
9854;SDS011;4966;48.112;9.282;2023-07-28T14:35:28;1999.90;;;999.90;;
9854;SDS011;4966;48.112;9.282;2023-07-28T14:37:53;1999.90;;;999.90;;
9854;SDS011;4966;48.112;9.282;2023-07-28T14:40:18;1999.90;;;999.90;;
9854;SDS011;4966;48.112;9.282;2023-07-28T14:42:44;1999.90;;;999.90;;
9854;SDS011;4966;48.112;9.282;2023-07-28T14:45:09;1999.90;;;999.90;;
9854;SDS011;4966;48.112;9.282;2023-07-28T14:47:35;3.60;;;1.52;;
9854;SDS011;4966;48.112;9.282;2023-07-28T14:50:00;1294.65;;;94.60;;
9854;SDS011;4966;48.112;9.282;2023-07-28T14:52:25;9.45;;;1.63;;
9854;SDS011;4966;48.112;9.282;2023-07-28T14:54:51;3.88;;;1.50;;
9854;SDS011;4966;48.112;9.282;2023-07-28T14:57:16;4.43;;;1.48;;
9854;SDS011;4966;48.112;9.282;2023-07-28T14:59:41;4.57;;;1.88;;